Startpagina
METAR-TAF:

METAR-TAF

Vliegvelden :

Flughafen Weeze

Weeze, Duitsland

breedte: 51-36-09N, lengte: 006-08-32E, hoogte: 32 m

Actueel weer

Dit bericht is 5 uur en het 15 minuten geleden gemaakt, om 16:20 UTC
Wind 13 kt uit het westen
Temperatuur 12°C
Vochtigheid 76%
Druk 993 hPa
Zicht 10 km of meer
Verspreide wolken op 2000 ft

METAR: EDLV 051620Z 28013KT 9999 SCT020 12/08 Q0993

Tijdstip: 23:35 (21:35 UTC)

Verwachting

Dit bericht is 8 uur en het 12 minuten geleden gemaakt, om 13:23 UTC
Verwachting geldig van 05 om 14 UTC tot 06 om 12 UTC
Wind 10 kt uit het westzuidwesten
Zicht 10 km of meer
Verspreide wolken op 2000 ft
Tijdelijke
van 05 om 14 UTC tot 05 om 19 UTC
Wind 15 kt uit het westen met uitschieters tot 25 kt
Zicht: 4000 m
Gebroken wolken op 1300 ft, Cumulonimbus.
onweer, regen
Wijzigt naar
van 06 om 08 UTC tot 06 om 10 UTC
Wind 15 kt uit het zuidwesten met uitschieters tot 25 kt

TAF: EDLV 051323Z 0514/0612 24010KT 9999 SCT020 TEMPO 0514/0519 26015G25KT 4000 TSRA BKN013CB BECMG 0608/0610 23015G25KT

Waarnemingen en weersverwachtingen van meer dan 4000 vliegvelden (METAR en TAF).

De beschikbare stations zijn de gele en rode punten op de kaart.

Ga met uw muis naar het station om de naam te zien.

Klik dan om waarnemingen en weersverwachtingen te zien.

kaart wijzigen: klik op de groene knoppen met een zwart kruis om in te zoomen, op de groene knop met een streepje om uit te zoomen of op de groene pijlen voor aangrenzende kaarten.


METAR-TAF: